Time;durP1;ratioP1;P1;durP2;ratioP2;P2;SDS_P1;SDS_P2;PMS_P1;PMS_P2;Temp;Humidity;BMP_temperature;BMP_pressure;BME280_temperature;BME280_humidity;BME280_pressure;Samples;Min_cycle;Max_cycle;Signal;HPM_P1;HPM_P2
2022/04/28 00:01:08;;;;;;;10.55;2.63;;;7.80;99.90;;;;;;5039774;28;20068;-66
2022/04/28 00:03:33;;;;;;;12.30;2.63;;;7.80;99.90;;;;;;5042511;28;20045;-66
2022/04/28 00:05:59;;;;;;;9.38;3.53;;;7.70;99.90;;;;;;5044177;28;20648;-66
2022/04/28 00:08:28;;;;;;;8.77;2.88;;;7.80;99.90;;;;;;5029095;28;20041;-67
2022/04/28 00:10:53;;;;;;;8.88;2.80;;;7.70;99.90;;;;;;5045167;28;20048;-66
2022/04/28 00:13:19;;;;;;;12.85;3.17;;;7.80;99.90;;;;;;5041540;28;20045;-66
2022/04/28 00:15:45;;;;;;;13.80;2.90;;;7.80;99.90;;;;;;5043844;28;20561;-66
2022/04/28 00:18:11;;;;;;;12.40;3.55;;;7.70;99.90;;;;;;5049208;28;20434;-66
2022/04/28 00:20:36;;;;;;;11.40;2.92;;;7.80;99.90;;;;;;5044186;28;20401;-66
2022/04/28 00:23:02;;;;;;;10.00;3.42;;;7.70;99.90;;;;;;5040887;28;20554;-66
2022/04/28 00:25:28;;;;;;;12.05;2.90;;;7.60;99.90;;;;;;5045350;28;20444;-66
2022/04/28 00:27:54;;;;;;;11.75;3.30;;;7.70;99.90;;;;;;5044500;28;20053;-66
2022/04/28 00:30:20;;;;;;;12.10;2.90;;;7.60;99.90;;;;;;5039507;28;20049;-66
2022/04/28 00:32:46;;;;;;;9.75;3.20;;;7.60;99.90;;;;;;5046801;28;20409;-66
2022/04/28 00:35:12;;;;;;;10.27;3.00;;;7.60;99.90;;;;;;5044398;28;20075;-66
2022/04/28 00:37:38;;;;;;;11.05;3.22;;;7.60;99.90;;;;;;5044833;28;20043;-66
2022/04/28 00:40:04;;;;;;;12.90;2.83;;;7.60;99.90;;;;;;5044831;28;20171;-66
2022/04/28 00:42:30;;;;;;;8.82;2.00;;;7.60;99.90;;;;;;5047748;28;20379;-67
2022/04/28 00:44:56;;;;;;;8.27;2.60;;;7.60;99.90;;;;;;5042036;28;20098;-66
2022/04/28 00:47:22;;;;;;;11.18;3.33;;;7.60;99.90;;;;;;5043794;28;20033;-66
2022/04/28 00:52:33;;;;;;;13.63;2.75;;;7.60;99.90;;;;;;5043800;28;20080;-66
2022/04/28 00:55:00;;;;;;;9.43;1.98;;;7.60;99.90;;;;;;5044659;28;20049;-66
2022/04/28 00:57:29;;;;;;;11.70;2.50;;;7.60;99.90;;;;;;5044724;28;20044;-66
2022/04/28 00:59:55;;;;;;;8.98;2.67;;;7.60;99.90;;;;;;5050738;28;20119;-66
2022/04/28 01:02:21;;;;;;;13.85;2.58;;;7.60;99.90;;;;;;5050023;28;20401;-67
2022/04/28 01:04:48;;;;;;;13.32;2.35;;;7.60;99.90;;;;;;5049865;28;20053;-66
2022/04/28 01:07:15;;;;;;;10.50;2.58;;;7.60;99.90;;;;;;5048189;28;20055;-67
2022/04/28 01:09:41;;;;;;;15.02;2.90;;;7.60;99.90;;;;;;5049242;28;20045;-67
2022/04/28 01:12:15;;;;;;;11.30;2.53;;;7.50;99.90;;;;;;5049237;28;20378;-66
2022/04/28 01:14:45;;;;;;;17.60;3.38;;;7.50;99.90;;;;;;5048444;28;20049;-66
2022/04/28 01:17:11;;;;;;;12.32;2.63;;;7.50;99.90;;;;;;5050086;28;20107;-66
2022/04/28 01:19:37;;;;;;;15.32;2.67;;;7.50;99.90;;;;;;5041454;28;20128;-66
2022/04/28 01:22:04;;;;;;;13.07;3.00;;;7.60;99.90;;;;;;5050057;28;20119;-66
2022/04/28 01:24:31;;;;;;;15.93;3.13;;;7.60;99.90;;;;;;5050067;28;20524;-66
2022/04/28 01:26:59;;;;;;;11.38;2.35;;;7.60;99.90;;;;;;5047772;28;20083;-67
2022/04/28 01:29:25;;;;;;;8.93;2.75;;;7.50;99.90;;;;;;5048048;28;20069;-66
2022/04/28 01:31:50;;;;;;;11.68;3.05;;;7.60;99.90;;;;;;5048179;28;20080;-66
2022/04/28 01:34:17;;;;;;;7.03;2.70;;;7.60;99.90;;;;;;5047964;28;20531;-66
2022/04/28 01:36:42;;;;;;;17.33;3.92;;;7.50;99.90;;;;;;5049121;28;20045;-66
2022/04/28 01:39:09;;;;;;;12.45;3.03;;;7.60;99.90;;;;;;5047052;28;20370;-67
2022/04/28 01:41:36;;;;;;;12.38;3.70;;;7.50;99.90;;;;;;5064199;28;20048;-66
2022/04/28 01:44:02;;;;;;;12.15;3.50;;;7.60;99.90;;;;;;5049537;28;20098;-66
2022/04/28 01:46:28;;;;;;;11.23;3.75;;;7.50;99.90;;;;;;5049521;28;20153;-66
2022/04/28 01:48:55;;;;;;;11.38;3.40;;;7.50;99.90;;;;;;5048821;28;20095;-66
2022/04/28 01:56:52;;;;;;;9.70;2.92;;;7.60;99.90;;;;;;5048648;28;20501;-66
2022/04/28 01:59:18;;;;;;;7.47;2.80;;;7.50;99.90;;;;;;5045616;28;20037;-66
2022/04/28 02:01:43;;;;;;;11.15;2.80;;;7.60;99.90;;;;;;5046817;28;20051;-66
2022/04/28 02:04:09;;;;;;;15.25;2.88;;;7.60;99.90;;;;;;5041505;28;20397;-66
2022/04/28 02:06:35;;;;;;;9.70;3.15;;;7.60;99.90;;;;;;5040198;28;20509;-66
2022/04/28 02:09:00;;;;;;;11.38;2.90;;;7.60;99.90;;;;;;5040815;28;20274;-67
2022/04/28 02:11:26;;;;;;;10.88;3.00;;;7.60;99.90;;;;;;5034676;28;20044;-67
2022/04/28 02:13:52;;;;;;;10.85;3.25;;;7.50;99.90;;;;;;5033129;28;20480;-66
2022/04/28 02:16:18;;;;;;;7.65;3.08;;;7.50;99.90;;;;;;5021905;28;20099;-67
2022/04/28 02:18:44;;;;;;;19.60;4.47;;;7.50;99.90;;;;;;5038975;28;20033;-67
2022/04/28 02:21:09;;;;;;;15.35;3.60;;;7.50;99.90;;;;;;5037520;28;20044;-67
2022/04/28 02:23:35;;;;;;;12.02;3.00;;;7.50;99.90;;;;;;5045068;28;20053;-66
2022/04/28 02:26:01;;;;;;;13.45;3.15;;;7.60;99.90;;;;;;5046788;28;20037;-67
2022/04/28 02:28:26;;;;;;;12.52;3.40;;;7.50;99.90;;;;;;5045586;28;20029;-67
2022/04/28 02:30:52;;;;;;;9.18;2.97;;;7.40;99.90;;;;;;5048052;28;20045;-66
2022/04/28 02:33:19;;;;;;;12.93;2.92;;;7.50;99.90;;;;;;5030251;28;20099;-66
2022/04/28 02:35:45;;;;;;;12.50;2.72;;;7.40;99.90;;;;;;5047468;28;20043;-66
2022/04/28 02:38:11;;;;;;;9.52;3.42;;;7.40;99.90;;;;;;5046247;28;20095;-67
2022/04/28 02:40:37;;;;;;;14.65;3.72;;;7.40;99.90;;;;;;5045907;28;20421;-66
2022/04/28 02:43:03;;;;;;;8.25;2.88;;;7.40;99.90;;;;;;5041649;28;20045;-66
2022/04/28 02:45:28;;;;;;;13.10;3.47;;;7.40;99.90;;;;;;5043632;28;20240;-66
2022/04/28 02:47:54;;;;;;;10.88;3.60;;;7.40;99.90;;;;;;5043428;28;20057;-68
2022/04/28 02:50:21;;;;;;;14.57;3.53;;;7.40;99.90;;;;;;5040832;28;20402;-66
2022/04/28 02:52:49;;;;;;;11.23;3.17;;;7.40;99.90;;;;;;5036111;28;20413;-66
2022/04/28 02:55:15;;;;;;;9.35;3.13;;;7.40;99.90;;;;;;5041364;28;20498;-66
2022/04/28 02:57:41;;;;;;;12.40;3.17;;;7.40;99.90;;;;;;5039124;28;20057;-67
2022/04/28 03:00:07;;;;;;;12.07;3.05;;;7.40;99.90;;;;;;5036747;28;20244;-66
2022/04/28 03:02:33;;;;;;;16.08;3.85;;;7.40;99.90;;;;;;5036165;28;20049;-66
2022/04/28 03:05:01;;;;;;;11.65;3.75;;;7.40;99.90;;;;;;5031369;28;20576;-66
2022/04/28 03:13:00;;;;;;;15.23;3.80;;;7.40;99.90;;;;;;5038046;28;20059;-66
2022/04/28 03:15:26;;;;;;;14.32;3.38;;;7.40;99.90;;;;;;5037804;28;20044;-66
2022/04/28 03:17:51;;;;;;;16.25;3.10;;;7.40;99.90;;;;;;5038013;28;20332;-67
2022/04/28 03:20:17;;;;;;;15.20;3.28;;;7.40;99.90;;;;;;5039673;28;20067;-67
2022/04/28 03:22:43;;;;;;;12.18;2.97;;;7.40;99.90;;;;;;5050641;28;20041;-69
2022/04/28 03:25:10;;;;;;;10.13;3.30;;;7.40;99.90;;;;;;5049798;28;20041;-68
2022/04/28 03:27:35;;;;;;;10.73;3.10;;;7.40;99.90;;;;;;5049698;28;20047;-68
2022/04/28 03:30:03;;;;;;;11.00;3.63;;;7.40;99.90;;;;;;5045631;28;20045;-67
2022/04/28 03:32:29;;;;;;;13.57;3.78;;;7.40;99.90;;;;;;5048260;28;20041;-67
2022/04/28 03:34:54;;;;;;;9.57;3.17;;;7.40;99.90;;;;;;5041597;28;20685;-68
2022/04/28 03:37:20;;;;;;;9.65;3.55;;;7.40;99.90;;;;;;5003395;28;20116;-66
2022/04/28 03:39:45;;;;;;;6.78;3.00;;;7.40;99.90;;;;;;5034823;28;20041;-64
2022/04/28 03:42:11;;;;;;;10.45;3.50;;;7.40;99.90;;;;;;5051964;28;20045;-67
2022/04/28 03:44:37;;;;;;;10.40;3.58;;;7.40;99.90;;;;;;5043311;28;20087;-66
2022/04/28 03:47:03;;;;;;;10.85;3.83;;;7.40;99.90;;;;;;5049442;28;20139;-67
2022/04/28 03:49:29;;;;;;;8.82;3.50;;;7.30;99.90;;;;;;5050186;28;20560;-66
2022/04/28 03:51:55;;;;;;;16.58;4.05;;;7.30;99.90;;;;;;5042169;28;20041;-66
2022/04/28 03:54:21;;;;;;;9.40;3.58;;;7.30;99.90;;;;;;5052157;28;20095;-66
2022/04/28 03:56:47;;;;;;;12.93;3.83;;;7.30;99.90;;;;;;5048675;28;20493;-66
2022/04/28 03:59:13;;;;;;;13.68;3.75;;;7.30;99.90;;;;;;5051452;28;20459;-66
2022/04/28 04:01:39;;;;;;;10.95;3.80;;;7.30;99.90;;;;;;5047643;28;20055;-66
2022/04/28 04:04:05;;;;;;;12.57;3.90;;;7.30;99.90;;;;;;5031399;28;20397;-66
2022/04/28 04:06:31;;;;;;;12.98;3.50;;;7.30;99.90;;;;;;5042848;28;20080;-65
2022/04/28 04:08:57;;;;;;;11.77;3.78;;;7.30;99.90;;;;;;5026917;28;20409;-66
2022/04/28 04:11:23;;;;;;;11.68;4.32;;;7.30;99.90;;;;;;5035562;28;20051;-66
2022/04/28 04:13:49;;;;;;;11.85;3.97;;;7.30;99.90;;;;;;5047523;28;20044;-66
2022/04/28 04:16:15;;;;;;;13.45;4.38;;;7.30;99.90;;;;;;5046966;28;20725;-66
2022/04/28 04:18:41;;;;;;;14.63;3.72;;;7.30;99.90;;;;;;5041454;28;20033;-66
2022/04/28 04:21:07;;;;;;;10.90;4.07;;;7.30;99.90;;;;;;5029480;28;20049;-67
2022/04/28 04:23:33;;;;;;;17.33;4.03;;;7.30;99.90;;;;;;5038295;28;20049;-66
2022/04/28 04:26:01;;;;;;;18.88;4.53;;;7.30;99.90;;;;;;5037461;28;20051;-66
2022/04/28 04:28:27;;;;;;;11.57;4.45;;;7.30;99.90;;;;;;5050010;28;20049;-67
2022/04/28 04:33:36;;;;;;;14.18;4.15;;;7.30;99.90;;;;;;5042227;28;20103;-66
2022/04/28 04:36:03;;;;;;;17.33;4.90;;;7.40;99.90;;;;;;5041644;28;20496;-67
2022/04/28 04:38:29;;;;;;;14.88;4.65;;;7.40;99.90;;;;;;5034792;28;20070;-68
2022/04/28 04:40:54;;;;;;;13.43;4.15;;;7.40;99.90;;;;;;5037638;28;20413;-67
2022/04/28 04:43:20;;;;;;;12.07;4.68;;;7.40;99.90;;;;;;5024892;28;20037;-67
2022/04/28 04:45:45;;;;;;;13.10;4.50;;;7.40;99.90;;;;;;5046205;28;20040;-67
2022/04/28 04:48:12;;;;;;;9.32;3.78;;;7.40;99.90;;;;;;5039445;28;20387;-67
2022/04/28 04:50:38;;;;;;;9.30;4.25;;;7.50;99.90;;;;;;5049427;28;20102;-67
2022/04/28 04:53:05;;;;;;;11.88;4.05;;;7.50;99.90;;;;;;5050746;28;20453;-67
2022/04/28 04:55:36;;;;;;;12.32;4.35;;;7.50;99.90;;;;;;5047611;28;20048;-67
2022/04/28 04:58:02;;;;;;;15.15;4.97;;;7.60;99.90;;;;;;5049967;28;20049;-67
2022/04/28 05:00:28;;;;;;;11.75;4.68;;;7.70;99.90;;;;;;5050384;28;20047;-67
2022/04/28 05:02:54;;;;;;;16.27;4.72;;;8.10;99.90;;;;;;5050793;28;20045;-66
2022/04/28 05:05:19;;;;;;;11.50;4.18;;;8.60;99.90;;;;;;5046833;28;20341;-66
2022/04/28 05:07:45;;;;;;;12.35;4.28;;;9.30;99.90;;;;;;5042178;28;20063;-66
2022/04/28 05:10:11;;;;;;;17.92;5.00;;;10.00;99.90;;;;;;5039038;28;20048;-67
2022/04/28 05:12:36;;;;;;;10.85;4.50;;;10.70;99.90;;;;;;5044830;28;20036;-66
2022/04/28 05:15:02;;;;;;;13.18;3.83;;;11.50;99.90;;;;;;5034965;28;20067;-66
2022/04/28 05:17:28;;;;;;;11.20;3.92;;;12.20;99.90;;;;;;5054418;28;20124;-67
2022/04/28 05:19:57;;;;;;;10.80;3.95;;;12.80;99.90;;;;;;5048987;28;20123;-68
2022/04/28 05:22:24;;;;;;;10.45;3.22;;;13.50;99.90;;;;;;5047010;28;20155;-67
2022/04/28 05:24:50;;;;;;;13.45;2.90;;;13.70;99.90;;;;;;5048719;28;20555;-67
2022/04/28 05:27:15;;;;;;;14.95;3.15;;;13.70;99.90;;;;;;5044534;28;20490;-66
2022/04/28 05:29:41;;;;;;;10.77;2.80;;;13.00;99.90;;;;;;5026059;28;20053;-67
2022/04/28 05:32:08;;;;;;;15.80;3.00;;;12.70;99.90;;;;;;5041017;28;20133;-67
2022/04/28 05:34:33;;;;;;;11.63;2.88;;;12.30;99.90;;;;;;5039816;28;20056;-67
2022/04/28 05:36:59;;;;;;;10.25;2.50;;;12.00;99.90;;;;;;5033658;28;20041;-66
2022/04/28 05:39:28;;;;;;;11.30;2.72;;;11.50;99.90;;;;;;5032614;28;20055;-67
2022/04/28 05:41:55;;;;;;;13.30;2.83;;;11.30;99.90;;;;;;5033728;28;20060;-67
2022/04/28 05:47:06;;;;;;;12.02;2.55;;;11.50;99.90;;;;;;5046804;28;20084;-66
2022/04/28 05:49:32;;;;;;;10.90;2.55;;;11.50;99.90;;;;;;5038268;28;20077;-66
2022/04/28 05:51:58;;;;;;;9.63;2.15;;;11.70;99.90;;;;;;5026672;28;20037;-67
2022/04/28 05:54:24;;;;;;;10.90;2.17;;;11.60;99.90;;;;;;5035398;28;20071;-66
2022/04/28 05:56:51;;;;;;;11.43;2.15;;;11.60;99.90;;;;;;5037445;28;20369;-67
2022/04/28 05:59:17;;;;;;;7.43;1.85;;;11.40;99.90;;;;;;5034510;28;20056;-67
2022/04/28 06:01:43;;;;;;;14.23;2.35;;;11.20;99.90;;;;;;5034076;28;20071;-66
2022/04/28 06:04:09;;;;;;;13.05;2.03;;;11.30;99.90;;;;;;5037128;28;20051;-66
2022/04/28 06:06:35;;;;;;;10.25;2.17;;;11.20;99.90;;;;;;5035317;28;20062;-67
2022/04/28 06:09:00;;;;;;;11.07;2.13;;;11.20;99.90;;;;;;5031883;28;20091;-67
2022/04/28 06:11:26;;;;;;;13.57;2.25;;;11.20;99.90;;;;;;5026007;28;20476;-67
2022/04/28 06:13:52;;;;;;;12.05;2.78;;;11.20;99.90;;;;;;5041749;28;20053;-66
2022/04/28 06:16:18;;;;;;;13.18;2.40;;;11.10;99.90;;;;;;5038489;28;20465;-68
2022/04/28 06:18:43;;;;;;;9.02;2.17;;;11.30;99.90;;;;;;5040446;28;20401;-67
2022/04/28 06:21:09;;;;;;;9.95;2.20;;;10.80;99.90;;;;;;5037178;28;20055;-66
2022/04/28 06:23:35;;;;;;;12.23;2.45;;;10.70;99.90;;;;;;5036266;28;20049;-66
2022/04/28 06:26:01;;;;;;;14.10;2.42;;;11.20;99.90;;;;;;5036280;28;20060;-67
2022/04/28 06:28:27;;;;;;;10.50;3.63;;;11.40;99.90;;;;;;5033276;28;20044;-67
2022/04/28 06:30:53;;;;;;;10.52;2.63;;;12.80;99.90;;;;;;5036798;28;20076;-67
2022/04/28 06:33:20;;;;;;;12.18;2.55;;;13.40;99.90;;;;;;5036190;28;20072;-66
2022/04/28 06:35:46;;;;;;;11.73;2.13;;;13.60;99.90;;;;;;5034785;28;20056;-66
2022/04/28 06:38:12;;;;;;;8.65;2.15;;;14.90;99.90;;;;;;5036579;28;20111;-65
2022/04/28 06:40:37;;;;;;;13.13;2.50;;;15.70;99.90;;;;;;5038092;28;20138;-66
2022/04/28 06:43:03;;;;;;;9.80;2.35;;;15.60;99.90;;;;;;5034363;28;20871;-67
2022/04/28 06:45:29;;;;;;;10.07;2.30;;;15.20;99.90;;;;;;5026793;28;20041;-66
2022/04/28 06:47:54;;;;;;;12.02;2.10;;;14.80;99.90;;;;;;5029846;28;20052;-66
2022/04/28 06:50:20;;;;;;;13.18;2.63;;;14.80;99.90;;;;;;5040188;28;20044;-66
2022/04/28 06:52:46;;;;;;;10.07;2.55;;;14.60;99.90;;;;;;5037183;28;20110;-66
2022/04/28 06:55:12;;;;;;;9.88;2.90;;;14.20;99.90;;;;;;5032346;28;20040;-67
2022/04/28 06:57:38;;;;;;;15.63;2.40;;;14.10;99.90;;;;;;5037420;28;20284;-67
2022/04/28 07:00:06;;;;;;;13.43;2.92;;;13.60;99.90;;;;;;5032381;28;20048;-66
2022/04/28 07:02:32;;;;;;;10.45;2.65;;;13.40;99.90;;;;;;5036178;28;20052;-66
2022/04/28 07:04:58;;;;;;;8.55;2.00;;;13.40;99.90;;;;;;5042205;28;20053;-66
2022/04/28 07:07:24;;;;;;;11.60;2.35;;;13.10;99.90;;;;;;5030977;28;20144;-66
2022/04/28 07:09:49;;;;;;;15.65;2.28;;;13.10;99.90;;;;;;5016021;28;20131;-67
2022/04/28 07:12:15;;;;;;;12.15;2.08;;;13.00;99.90;;;;;;5036658;28;20045;-67
2022/04/28 07:14:42;;;;;;;8.55;1.88;;;12.80;99.90;;;;;;5044538;28;20124;-67
2022/04/28 07:17:08;;;;;;;10.85;1.90;;;12.70;99.90;;;;;;5042717;28;20182;-67
2022/04/28 07:19:33;;;;;;;11.60;1.92;;;12.90;99.90;;;;;;5021595;28;20238;-68
2022/04/28 07:22:02;;;;;;;13.65;2.53;;;13.30;99.90;;;;;;5038777;28;20079;-67
2022/04/28 07:24:29;;;;;;;15.13;2.53;;;13.70;99.90;;;;;;5040015;28;20199;-67
2022/04/28 07:26:56;;;;;;;12.13;2.13;;;14.00;99.90;;;;;;5040432;28;20328;-67
2022/04/28 07:29:21;;;;;;;9.30;1.90;;;13.80;99.90;;;;;;5021754;28;20370;-67
2022/04/28 07:31:47;;;;;;;11.88;1.80;;;13.20;99.90;;;;;;5038782;28;20052;-68
2022/04/28 07:34:12;;;;;;;15.68;2.05;;;12.50;99.90;;;;;;5038210;28;20041;-67
2022/04/28 07:36:38;;;;;;;9.85;1.70;;;12.20;99.90;;;;;;5039520;28;20042;-67
2022/04/28 07:39:04;;;;;;;7.10;2.05;;;11.80;99.90;;;;;;5039737;28;20119;-68
2022/04/28 07:41:30;;;;;;;13.07;1.92;;;11.70;99.90;;;;;;5037342;28;20041;-67
2022/04/28 07:43:56;;;;;;;11.00;2.15;;;11.60;99.90;;;;;;5039071;28;20052;-68
2022/04/28 07:46:21;;;;;;;11.57;2.10;;;11.50;99.90;;;;;;5037726;28;20037;-67
2022/04/28 07:48:48;;;;;;;10.32;2.15;;;11.30;99.90;;;;;;5040763;28;20580;-67
2022/04/28 07:51:13;;;;;;;7.95;1.65;;;11.30;99.90;;;;;;5036925;28;20041;-68
2022/04/28 07:53:39;;;;;;;8.75;1.92;;;11.30;99.90;;;;;;5033126;28;20049;-68
2022/04/28 07:56:13;;;;;;;12.30;1.80;;;11.30;99.90;;;;;;5033881;28;20488;-67
2022/04/28 07:58:43;;;;;;;7.97;1.50;;;11.30;99.90;;;;;;5043873;28;20041;-67
2022/04/28 08:01:09;;;;;;;12.52;2.33;;;11.20;99.90;;;;;;5037575;28;20055;-68
2022/04/28 08:03:35;;;;;;;10.75;1.83;;;11.20;99.90;;;;;;5034828;28;20063;-67
2022/04/28 08:06:02;;;;;;;8.38;1.80;;;11.20;99.90;;;;;;5036020;28;20056;-68
2022/04/28 08:08:28;;;;;;;13.73;2.10;;;11.20;99.90;;;;;;5039005;28;20488;-66
2022/04/28 08:10:54;;;;;;;10.77;1.83;;;11.10;99.90;;;;;;5022389;28;20068;-68
2022/04/28 08:13:20;;;;;;;9.65;1.70;;;11.10;99.90;;;;;;5040099;28;20330;-68
2022/04/28 08:15:45;;;;;;;12.20;2.08;;;11.20;99.90;;;;;;5037618;28;20488;-69
2022/04/28 08:18:11;;;;;;;12.55;2.00;;;11.50;99.90;;;;;;5045975;28;20107;-69
2022/04/28 08:20:40;;;;;;;9.68;1.60;;;11.90;99.90;;;;;;5044700;28;20040;-68
2022/04/28 08:23:06;;;;;;;8.85;1.60;;;12.00;99.90;;;;;;5043942;28;20052;-69
2022/04/28 08:25:31;;;;;;;6.88;1.58;;;11.90;99.90;;;;;;5029361;28;20041;-69
2022/04/28 08:27:57;;;;;;;9.30;1.73;;;11.90;99.90;;;;;;5046045;28;20049;-67
2022/04/28 08:30:23;;;;;;;12.32;2.30;;;11.80;99.90;;;;;;5046355;28;20139;-67
2022/04/28 08:32:49;;;;;;;10.75;2.10;;;11.90;99.90;;;;;;5042847;28;20053;-67
2022/04/28 08:35:15;;;;;;;14.05;2.15;;;11.90;99.90;;;;;;5040504;28;20134;-67
2022/04/28 08:37:41;;;;;;;13.27;1.70;;;11.90;99.90;;;;;;5039259;28;20965;-67
2022/04/28 08:40:08;;;;;;;11.85;2.13;;;12.00;99.90;;;;;;5045124;28;20033;-67
2022/04/28 08:42:37;;;;;;;10.77;1.60;;;11.90;99.90;;;;;;5031873;28;20087;-68
2022/04/28 08:45:04;;;;;;;12.68;1.95;;;11.80;99.90;;;;;;5042506;28;20053;-67
2022/04/28 08:47:31;;;;;;;9.43;1.75;;;11.60;99.90;;;;;;5042800;28;20383;-66
2022/04/28 08:49:57;;;;;;;12.38;1.95;;;11.70;99.90;;;;;;5043330;28;20194;-66
2022/04/28 08:52:27;;;;;;;12.15;1.73;;;11.60;99.90;;;;;;5041635;28;20498;-68
2022/04/28 08:54:56;;;;;;;8.15;1.70;;;11.70;99.90;;;;;;5047913;28;20406;-69
2022/04/28 08:57:23;;;;;;;10.55;1.80;;;11.70;99.90;;;;;;5026961;28;20068;-66
2022/04/28 08:59:51;;;;;;;11.15;1.70;;;11.70;99.90;;;;;;5017918;28;20118;-67
2022/04/28 09:02:23;;;;;;;9.77;1.70;;;11.60;99.90;;;;;;5032109;28;20419;-67
2022/04/28 09:04:48;;;;;;;12.63;1.95;;;11.60;99.90;;;;;;5027229;28;20041;-67
2022/04/28 09:07:14;;;;;;;8.15;1.77;;;11.70;99.90;;;;;;5041102;28;20050;-67
2022/04/28 09:09:40;;;;;;;11.60;2.30;;;11.70;99.90;;;;;;5039536;28;20122;-67
2022/04/28 09:12:06;;;;;;;12.02;2.10;;;11.80;99.90;;;;;;5036590;28;20049;-67
2022/04/28 09:14:32;;;;;;;15.73;2.20;;;11.80;99.90;;;;;;5039017;28;20578;-67
2022/04/28 09:17:04;;;;;;;12.55;2.22;;;12.00;99.90;;;;;;5043096;28;20041;-67
2022/04/28 09:19:37;;;;;;;14.30;2.63;;;12.40;99.90;;;;;;5043083;28;20579;-67
2022/04/28 09:22:12;;;;;;;9.35;2.08;;;12.80;99.90;;;;;;5045174;28;20055;-67
2022/04/28 09:24:40;;;;;;;15.32;2.67;;;13.10;99.90;;;;;;5045507;28;20052;-67
2022/04/28 09:27:08;;;;;;;10.70;2.90;;;13.10;99.90;;;;;;5044614;28;20048;-67
2022/04/28 09:29:36;;;;;;;12.68;2.85;;;13.30;99.90;;;;;;5046199;28;20049;-67
2022/04/28 09:32:08;;;;;;;11.43;2.35;;;13.20;99.90;;;;;;5025078;28;20080;-67
2022/04/28 09:34:43;;;;;;;11.30;2.55;;;12.90;99.90;;;;;;5044519;28;20057;-66
2022/04/28 09:37:14;;;;;;;17.42;2.75;;;12.60;99.90;;;;;;5044699;28;20120;-67
2022/04/28 09:42:31;;;;;;;11.35;2.60;;;12.30;99.90;;;;;;5042815;28;20045;-67
2022/04/28 09:44:58;;;;;;;12.65;2.70;;;12.10;99.90;;;;;;5034563;28;20052;-67
2022/04/28 09:47:29;;;;;;;15.60;2.47;;;11.90;99.90;;;;;;5042987;28;20569;-68
2022/04/28 09:49:58;;;;;;;15.95;3.63;;;11.70;99.90;;;;;;5035122;28;20525;-67
2022/04/28 09:52:26;;;;;;;13.00;2.13;;;11.70;99.90;;;;;;5038980;28;20125;-68
2022/04/28 09:55:00;;;;;;;15.52;3.00;;;11.90;99.90;;;;;;5042399;28;20476;-68
2022/04/28 09:57:27;;;;;;;11.63;2.65;;;12.00;99.90;;;;;;5038614;28;20742;-67
2022/04/28 09:59:54;;;;;;;13.60;2.65;;;12.10;99.90;;;;;;5045015;28;20162;-66
2022/04/28 10:02:22;;;;;;;9.50;2.60;;;12.00;99.90;;;;;;5042719;28;20057;-67
2022/04/28 10:04:49;;;;;;;10.27;2.65;;;11.90;99.90;;;;;;5040854;28;20128;-67
2022/04/28 10:07:16;;;;;;;12.50;3.22;;;11.80;99.90;;;;;;5041662;28;20045;-67
2022/04/28 10:09:48;;;;;;;14.50;3.70;;;11.60;99.90;;;;;;5040264;28;20041;-67
2022/04/28 10:12:18;;;;;;;13.18;3.30;;;11.50;99.90;;;;;;5038385;28;20048;-67
2022/04/28 10:14:44;;;;;;;11.40;3.50;;;11.50;99.90;;;;;;5038691;28;20040;-67
2022/04/28 10:17:14;;;;;;;16.77;3.20;;;11.50;99.90;;;;;;5040876;28;20405;-68
2022/04/28 10:19:47;;;;;;;20.43;3.70;;;11.60;99.90;;;;;;5045838;28;20075;-67
2022/04/28 10:22:19;;;;;;;18.52;4.80;;;11.80;99.90;;;;;;5023093;28;20513;-67
2022/04/28 10:33:03;;;;;;;13.43;3.40;;;11.70;99.90;;;;;;5038654;28;20061;-66
2022/04/28 10:35:46;;;;;;;15.43;3.10;;;11.80;99.90;;;;;;5043691;28;20040;-66
2022/04/28 10:38:34;;;;;;;9.55;3.00;;;11.80;99.90;;;;;;5039353;28;20052;-68
2022/04/28 10:41:04;;;;;;;15.75;4.25;;;12.00;99.90;;;;;;5044068;28;20310;-66
2022/04/28 10:43:32;;;;;;;14.35;2.97;;;12.00;99.90;;;;;;5042546;28;20041;-68
2022/04/28 10:46:08;;;;;;;9.73;3.00;;;11.90;99.90;;;;;;5024112;28;20061;-66
2022/04/28 10:48:42;;;;;;;11.50;2.95;;;12.00;99.90;;;;;;5018541;28;20057;-66
2022/04/28 10:51:22;;;;;;;12.48;3.17;;;12.00;99.90;;;;;;5036858;28;20041;-66
2022/04/28 10:54:08;;;;;;;11.82;2.50;;;12.00;99.90;;;;;;5029916;28;20040;-66
2022/04/28 10:56:40;;;;;;;14.50;2.90;;;12.00;99.90;;;;;;5029592;28;20041;-66
2022/04/28 10:59:34;;;;;;;13.43;3.20;;;12.00;99.90;;;;;;5040856;28;20037;-66
2022/04/28 11:02:15;;;;;;;12.05;2.40;;;11.90;99.90;;;;;;5033812;28;20171;-66
2022/04/28 11:04:42;;;;;;;12.18;2.97;;;11.90;99.90;;;;;;5034297;28;20053;-66
2022/04/28 11:07:10;;;;;;;13.10;3.08;;;11.90;99.90;;;;;;5042265;28;20084;-66
2022/04/28 11:09:41;;;;;;;13.15;2.63;;;11.90;99.90;;;;;;5043777;28;20040;-66
2022/04/28 11:12:08;;;;;;;15.90;3.60;;;11.90;99.90;;;;;;5040854;28;20056;-66
2022/04/28 11:15:07;;;;;;;16.38;3.22;;;11.90;99.90;;;;;;5044572;28;20049;-66
2022/04/28 11:17:38;;;;;;;12.63;2.80;;;11.90;99.90;;;;;;5031580;28;20057;-66
2022/04/28 11:20:12;;;;;;;14.70;2.53;;;11.90;99.90;;;;;;5043893;28;20040;-66
2022/04/28 11:22:42;;;;;;;15.30;2.60;;;11.80;99.90;;;;;;5042808;28;20438;-66
2022/04/28 11:25:12;;;;;;;10.82;2.72;;;11.80;99.90;;;;;;5044151;28;20041;-66
2022/04/28 11:27:39;;;;;;;14.55;3.00;;;11.70;99.90;;;;;;5042311;28;20055;-66
2022/04/28 11:30:06;;;;;;;14.50;2.38;;;11.70;99.90;;;;;;5042167;28;20048;-66
2022/04/28 11:32:31;;;;;;;11.50;2.72;;;11.70;99.90;;;;;;5043779;28;20068;-67
2022/04/28 11:34:58;;;;;;;16.23;2.72;;;11.70;99.90;;;;;;5047961;28;20045;-66
2022/04/28 11:37:26;;;;;;;11.55;2.50;;;11.80;99.90;;;;;;5047406;28;20057;-66
2022/04/28 11:39:57;;;;;;;12.18;2.38;;;11.70;99.90;;;;;;5045077;28;20110;-67
2022/04/28 11:42:25;;;;;;;10.70;2.75;;;11.70;99.90;;;;;;5047094;28;20409;-66
2022/04/28 11:44:56;;;;;;;13.38;2.72;;;11.70;99.90;;;;;;5047012;28;20524;-66
2022/04/28 11:47:24;;;;;;;9.70;2.65;;;11.80;99.90;;;;;;5046908;28;20045;-67
2022/04/28 11:50:03;;;;;;;11.45;3.05;;;11.80;99.90;;;;;;5047915;28;20084;-66
2022/04/28 11:52:34;;;;;;;14.57;2.92;;;11.80;99.90;;;;;;5046700;28;20081;-66
2022/04/28 11:55:07;;;;;;;11.38;2.53;;;11.80;99.90;;;;;;5047795;28;20041;-67
2022/04/28 11:57:33;;;;;;;10.77;2.25;;;11.80;99.90;;;;;;5044170;28;20056;-66
2022/04/28 11:59:59;;;;;;;10.55;2.80;;;11.80;99.90;;;;;;5046190;28;20049;-66
2022/04/28 12:02:32;;;;;;;15.02;2.60;;;11.70;99.90;;;;;;5041655;28;20521;-66
2022/04/28 12:05:00;;;;;;;10.02;2.03;;;11.80;99.90;;;;;;5024838;28;20510;-66
2022/04/28 12:07:34;;;;;;;8.98;2.30;;;11.80;99.90;;;;;;5044991;28;20041;-66
2022/04/28 12:15:32;;;;;;;14.57;3.28;;;11.80;99.90;;;;;;5044315;28;20060;-66
2022/04/28 12:21:00;;;;;;;18.65;3.08;;;11.80;99.90;;;;;;5046168;28;21033;-67
2022/04/28 12:23:36;;;;;;;11.70;3.10;;;11.80;99.90;;;;;;5046509;28;20045;-66
2022/04/28 12:26:06;;;;;;;18.10;3.10;;;11.80;99.90;;;;;;5048606;28;20048;-67
2022/04/28 12:28:38;;;;;;;16.05;2.72;;;11.90;99.90;;;;;;5046790;28;20128;-66
2022/04/28 12:31:04;;;;;;;12.63;2.53;;;11.90;99.90;;;;;;5038589;28;20048;-66
2022/04/28 12:33:35;;;;;;;16.90;2.50;;;12.00;99.90;;;;;;5041077;28;20046;-66
2022/04/28 12:36:03;;;;;;;17.70;2.88;;;11.90;99.90;;;;;;5019339;28;20194;-67
2022/04/28 12:38:30;;;;;;;12.38;2.83;;;12.10;99.90;;;;;;5045363;28;20045;-66
2022/04/28 12:40:56;;;;;;;10.65;2.58;;;11.90;99.90;;;;;;5041495;28;20037;-66
2022/04/28 12:43:59;;;;;;;13.40;3.28;;;12.00;99.90;;;;;;5034602;28;20462;-66
2022/04/28 12:46:39;;;;;;;14.20;3.00;;;12.00;99.90;;;;;;4999337;28;20048;-65
2022/04/28 12:49:08;;;;;;;14.52;2.47;;;11.80;99.90;;;;;;5041906;28;20510;-66
2022/04/28 12:51:42;;;;;;;11.32;2.25;;;11.70;99.90;;;;;;5042885;28;20048;-66
2022/04/28 12:54:19;;;;;;;12.63;2.78;;;11.60;99.90;;;;;;5045875;28;20041;-66
2022/04/28 12:56:52;;;;;;;10.18;2.38;;;11.60;99.90;;;;;;5044667;28;20065;-66
2022/04/28 12:59:20;;;;;;;11.15;2.75;;;11.70;99.90;;;;;;5044391;28;20040;-65
2022/04/28 13:01:47;;;;;;;13.52;2.58;;;11.70;99.90;;;;;;5044879;28;20056;-67
2022/04/28 13:04:21;;;;;;;12.65;2.63;;;11.70;99.90;;;;;;5042949;28;20071;-66
2022/04/28 13:06:48;;;;;;;15.65;2.53;;;11.70;99.90;;;;;;5043677;28;20049;-66
2022/04/28 13:09:15;;;;;;;9.23;2.47;;;11.70;99.90;;;;;;5044381;28;20049;-66
2022/04/28 13:11:43;;;;;;;10.48;2.50;;;11.70;99.90;;;;;;5043862;28;20049;-66
2022/04/28 13:14:11;;;;;;;11.80;2.50;;;11.70;99.90;;;;;;5041694;28;20044;-66
2022/04/28 13:16:40;;;;;;;17.10;2.75;;;11.70;99.90;;;;;;5039821;28;20485;-66
2022/04/28 13:19:08;;;;;;;11.80;2.83;;;11.70;99.90;;;;;;5043561;28;20072;-66
2022/04/28 13:21:34;;;;;;;13.45;2.58;;;11.70;99.90;;;;;;5046420;28;20045;-66
2022/04/28 13:24:00;;;;;;;11.07;2.50;;;11.80;99.90;;;;;;5042959;28;20049;-66